sensor_id;sensor_type;location;lat;lon;timestamp;P1;durP1;ratioP1;P2;durP2;ratioP2
84905;SDS011;75170;42.116;21.740;2024-01-30T00:01:24;33.40;;;15.13;;
84905;SDS011;75170;42.116;21.740;2024-01-30T00:03:50;33.50;;;15.85;;
84905;SDS011;75170;42.116;21.740;2024-01-30T00:06:20;30.38;;;16.13;;
84905;SDS011;75170;42.116;21.740;2024-01-30T00:08:47;31.38;;;16.25;;
84905;SDS011;75170;42.116;21.740;2024-01-30T00:11:14;33.03;;;16.88;;
84905;SDS011;75170;42.116;21.740;2024-01-30T00:13:40;34.58;;;16.40;;
84905;SDS011;75170;42.116;21.740;2024-01-30T00:16:06;27.45;;;15.85;;
84905;SDS011;75170;42.116;21.740;2024-01-30T00:18:35;30.10;;;15.45;;
84905;SDS011;75170;42.116;21.740;2024-01-30T00:21:01;27.70;;;15.43;;
84905;SDS011;75170;42.116;21.740;2024-01-30T00:23:28;32.85;;;17.05;;
84905;SDS011;75170;42.116;21.740;2024-01-30T00:25:54;33.10;;;16.50;;
84905;SDS011;75170;42.116;21.740;2024-01-30T00:28:20;28.92;;;15.50;;
84905;SDS011;75170;42.116;21.740;2024-01-30T00:30:46;30.08;;;16.58;;
84905;SDS011;75170;42.116;21.740;2024-01-30T00:33:12;33.25;;;17.60;;
84905;SDS011;75170;42.116;21.740;2024-01-30T00:35:40;35.20;;;16.73;;
84905;SDS011;75170;42.116;21.740;2024-01-30T00:38:06;31.08;;;16.15;;
84905;SDS011;75170;42.116;21.740;2024-01-30T00:40:33;31.98;;;16.27;;
84905;SDS011;75170;42.116;21.740;2024-01-30T00:42:59;28.88;;;15.68;;
84905;SDS011;75170;42.116;21.740;2024-01-30T00:45:25;28.85;;;15.50;;
84905;SDS011;75170;42.116;21.740;2024-01-30T00:47:51;33.00;;;16.88;;
84905;SDS011;75170;42.116;21.740;2024-01-30T00:50:17;32.00;;;14.57;;
84905;SDS011;75170;42.116;21.740;2024-01-30T00:52:43;27.33;;;13.90;;
84905;SDS011;75170;42.116;21.740;2024-01-30T00:55:10;27.92;;;14.68;;
84905;SDS011;75170;42.116;21.740;2024-01-30T00:57:36;24.63;;;13.35;;
84905;SDS011;75170;42.116;21.740;2024-01-30T01:00:02;24.55;;;12.68;;
84905;SDS011;75170;42.116;21.740;2024-01-30T01:02:31;25.38;;;13.27;;
84905;SDS011;75170;42.116;21.740;2024-01-30T01:04:57;25.67;;;13.02;;
84905;SDS011;75170;42.116;21.740;2024-01-30T01:07:23;26.98;;;13.38;;
84905;SDS011;75170;42.116;21.740;2024-01-30T01:09:49;27.42;;;13.50;;
84905;SDS011;75170;42.116;21.740;2024-01-30T01:12:15;26.60;;;13.05;;
84905;SDS011;75170;42.116;21.740;2024-01-30T01:14:41;22.92;;;12.45;;
84905;SDS011;75170;42.116;21.740;2024-01-30T01:17:07;24.27;;;12.32;;
84905;SDS011;75170;42.116;21.740;2024-01-30T01:19:33;21.80;;;12.20;;
84905;SDS011;75170;42.116;21.740;2024-01-30T01:22:00;26.88;;;12.30;;
84905;SDS011;75170;42.116;21.740;2024-01-30T01:24:28;23.70;;;12.13;;
84905;SDS011;75170;42.116;21.740;2024-01-30T01:26:54;26.25;;;12.93;;
84905;SDS011;75170;42.116;21.740;2024-01-30T01:29:21;27.20;;;14.25;;
84905;SDS011;75170;42.116;21.740;2024-01-30T01:31:53;27.02;;;12.77;;
84905;SDS011;75170;42.116;21.740;2024-01-30T01:34:19;28.30;;;14.52;;
84905;SDS011;75170;42.116;21.740;2024-01-30T01:36:45;27.00;;;13.95;;
84905;SDS011;75170;42.116;21.740;2024-01-30T01:39:11;26.70;;;14.45;;
84905;SDS011;75170;42.116;21.740;2024-01-30T01:41:37;27.42;;;14.23;;
84905;SDS011;75170;42.116;21.740;2024-01-30T01:44:04;26.77;;;14.55;;
84905;SDS011;75170;42.116;21.740;2024-01-30T01:46:31;27.98;;;13.30;;
84905;SDS011;75170;42.116;21.740;2024-01-30T01:48:58;24.23;;;13.57;;
84905;SDS011;75170;42.116;21.740;2024-01-30T01:51:26;26.67;;;13.00;;
84905;SDS011;75170;42.116;21.740;2024-01-30T01:53:53;27.02;;;13.55;;
84905;SDS011;75170;42.116;21.740;2024-01-30T01:56:20;26.85;;;13.82;;
84905;SDS011;75170;42.116;21.740;2024-01-30T01:58:46;25.42;;;14.35;;
84905;SDS011;75170;42.116;21.740;2024-01-30T02:01:13;24.35;;;13.63;;
84905;SDS011;75170;42.116;21.740;2024-01-30T02:03:40;25.85;;;13.10;;
84905;SDS011;75170;42.116;21.740;2024-01-30T02:06:07;29.42;;;14.65;;
84905;SDS011;75170;42.116;21.740;2024-01-30T02:08:33;26.85;;;14.23;;
84905;SDS011;75170;42.116;21.740;2024-01-30T02:10:59;26.25;;;13.48;;
84905;SDS011;75170;42.116;21.740;2024-01-30T02:13:27;28.00;;;18.10;;
84905;SDS011;75170;42.116;21.740;2024-01-30T02:15:53;28.70;;;16.08;;
84905;SDS011;75170;42.116;21.740;2024-01-30T02:18:19;30.65;;;16.60;;
84905;SDS011;75170;42.116;21.740;2024-01-30T02:20:48;31.88;;;15.65;;
84905;SDS011;75170;42.116;21.740;2024-01-30T02:23:17;31.40;;;15.98;;
84905;SDS011;75170;42.116;21.740;2024-01-30T02:25:45;29.35;;;14.93;;
84905;SDS011;75170;42.116;21.740;2024-01-30T02:28:13;29.85;;;15.93;;
84905;SDS011;75170;42.116;21.740;2024-01-30T02:30:39;32.78;;;15.57;;
84905;SDS011;75170;42.116;21.740;2024-01-30T02:33:06;30.50;;;15.30;;
84905;SDS011;75170;42.116;21.740;2024-01-30T02:35:32;25.67;;;13.45;;
84905;SDS011;75170;42.116;21.740;2024-01-30T02:37:59;37.00;;;16.40;;
84905;SDS011;75170;42.116;21.740;2024-01-30T02:40:25;36.38;;;16.33;;
84905;SDS011;75170;42.116;21.740;2024-01-30T02:42:51;29.90;;;14.50;;
84905;SDS011;75170;42.116;21.740;2024-01-30T02:45:17;31.42;;;14.38;;
84905;SDS011;75170;42.116;21.740;2024-01-30T02:47:43;24.92;;;13.30;;
84905;SDS011;75170;42.116;21.740;2024-01-30T02:50:09;23.38;;;11.90;;
84905;SDS011;75170;42.116;21.740;2024-01-30T02:52:36;18.55;;;10.35;;
84905;SDS011;75170;42.116;21.740;2024-01-30T02:55:02;20.02;;;10.02;;
84905;SDS011;75170;42.116;21.740;2024-01-30T02:57:28;17.15;;;9.52;;
84905;SDS011;75170;42.116;21.740;2024-01-30T02:59:55;18.35;;;10.63;;
84905;SDS011;75170;42.116;21.740;2024-01-30T03:02:21;20.50;;;10.65;;
84905;SDS011;75170;42.116;21.740;2024-01-30T03:04:47;20.73;;;10.98;;
84905;SDS011;75170;42.116;21.740;2024-01-30T03:07:13;26.27;;;13.07;;
84905;SDS011;75170;42.116;21.740;2024-01-30T03:09:40;19.13;;;10.25;;
84905;SDS011;75170;42.116;21.740;2024-01-30T03:12:10;20.75;;;11.35;;
84905;SDS011;75170;42.116;21.740;2024-01-30T03:14:36;18.52;;;10.05;;
84905;SDS011;75170;42.116;21.740;2024-01-30T03:17:02;20.20;;;10.45;;
84905;SDS011;75170;42.116;21.740;2024-01-30T03:19:28;24.20;;;11.52;;
84905;SDS011;75170;42.116;21.740;2024-01-30T03:21:54;23.52;;;11.35;;
84905;SDS011;75170;42.116;21.740;2024-01-30T03:24:21;18.58;;;10.13;;
84905;SDS011;75170;42.116;21.740;2024-01-30T03:26:47;18.83;;;10.25;;
84905;SDS011;75170;42.116;21.740;2024-01-30T03:29:13;23.20;;;10.25;;
84905;SDS011;75170;42.116;21.740;2024-01-30T03:31:40;21.88;;;10.77;;
84905;SDS011;75170;42.116;21.740;2024-01-30T03:34:06;21.42;;;10.63;;
84905;SDS011;75170;42.116;21.740;2024-01-30T03:36:32;20.65;;;11.65;;
84905;SDS011;75170;42.116;21.740;2024-01-30T03:38:59;18.80;;;9.93;;
84905;SDS011;75170;42.116;21.740;2024-01-30T03:41:25;17.88;;;10.25;;
84905;SDS011;75170;42.116;21.740;2024-01-30T03:43:51;15.02;;;9.45;;
84905;SDS011;75170;42.116;21.740;2024-01-30T03:46:18;15.90;;;9.10;;
84905;SDS011;75170;42.116;21.740;2024-01-30T03:48:44;17.88;;;9.63;;
84905;SDS011;75170;42.116;21.740;2024-01-30T03:51:11;18.27;;;10.50;;
84905;SDS011;75170;42.116;21.740;2024-01-30T03:53:40;21.02;;;10.68;;
84905;SDS011;75170;42.116;21.740;2024-01-30T03:56:09;19.38;;;10.38;;
84905;SDS011;75170;42.116;21.740;2024-01-30T03:58:35;19.15;;;10.05;;
84905;SDS011;75170;42.116;21.740;2024-01-30T04:01:02;16.73;;;8.65;;
84905;SDS011;75170;42.116;21.740;2024-01-30T04:03:28;18.52;;;9.60;;
84905;SDS011;75170;42.116;21.740;2024-01-30T04:05:54;17.42;;;8.90;;
84905;SDS011;75170;42.116;21.740;2024-01-30T04:08:21;16.17;;;9.52;;
84905;SDS011;75170;42.116;21.740;2024-01-30T04:10:47;14.65;;;8.52;;
84905;SDS011;75170;42.116;21.740;2024-01-30T04:13:13;17.67;;;9.88;;
84905;SDS011;75170;42.116;21.740;2024-01-30T04:15:39;17.42;;;9.88;;
84905;SDS011;75170;42.116;21.740;2024-01-30T04:21:08;19.63;;;9.77;;
84905;SDS011;75170;42.116;21.740;2024-01-30T04:23:34;18.23;;;9.63;;
84905;SDS011;75170;42.116;21.740;2024-01-30T04:26:01;21.25;;;11.02;;
84905;SDS011;75170;42.116;21.740;2024-01-30T04:28:28;17.45;;;10.18;;
84905;SDS011;75170;42.116;21.740;2024-01-30T04:30:55;19.77;;;11.10;;
84905;SDS011;75170;42.116;21.740;2024-01-30T04:33:21;17.75;;;10.30;;
84905;SDS011;75170;42.116;21.740;2024-01-30T04:35:47;18.08;;;10.70;;
84905;SDS011;75170;42.116;21.740;2024-01-30T04:38:13;26.50;;;12.73;;
84905;SDS011;75170;42.116;21.740;2024-01-30T04:40:41;21.90;;;10.88;;
84905;SDS011;75170;42.116;21.740;2024-01-30T04:43:07;17.75;;;10.43;;
84905;SDS011;75170;42.116;21.740;2024-01-30T04:45:33;22.95;;;11.20;;
84905;SDS011;75170;42.116;21.740;2024-01-30T04:47:59;20.17;;;10.52;;
84905;SDS011;75170;42.116;21.740;2024-01-30T04:50:25;22.17;;;11.57;;
84905;SDS011;75170;42.116;21.740;2024-01-30T04:52:51;24.75;;;12.18;;
84905;SDS011;75170;42.116;21.740;2024-01-30T04:55:18;20.90;;;10.90;;
84905;SDS011;75170;42.116;21.740;2024-01-30T04:57:44;21.90;;;10.90;;
84905;SDS011;75170;42.116;21.740;2024-01-30T05:00:10;24.70;;;11.13;;
84905;SDS011;75170;42.116;21.740;2024-01-30T05:02:36;17.75;;;9.88;;
84905;SDS011;75170;42.116;21.740;2024-01-30T05:05:02;19.15;;;10.27;;
84905;SDS011;75170;42.116;21.740;2024-01-30T05:07:29;18.83;;;10.27;;
84905;SDS011;75170;42.116;21.740;2024-01-30T05:09:55;20.75;;;10.20;;
84905;SDS011;75170;42.116;21.740;2024-01-30T05:12:21;21.95;;;10.23;;
84905;SDS011;75170;42.116;21.740;2024-01-30T05:14:47;19.92;;;9.30;;
84905;SDS011;75170;42.116;21.740;2024-01-30T05:17:13;21.20;;;10.27;;
84905;SDS011;75170;42.116;21.740;2024-01-30T05:19:39;20.38;;;9.27;;
84905;SDS011;75170;42.116;21.740;2024-01-30T05:22:05;17.60;;;8.70;;
84905;SDS011;75170;42.116;21.740;2024-01-30T05:24:32;15.02;;;8.43;;
84905;SDS011;75170;42.116;21.740;2024-01-30T05:26:58;15.65;;;8.50;;
84905;SDS011;75170;42.116;21.740;2024-01-30T05:29:24;17.10;;;8.50;;
84905;SDS011;75170;42.116;21.740;2024-01-30T05:31:51;17.58;;;8.98;;
84905;SDS011;75170;42.116;21.740;2024-01-30T05:34:17;18.50;;;10.93;;
84905;SDS011;75170;42.116;21.740;2024-01-30T05:36:43;20.92;;;10.30;;
84905;SDS011;75170;42.116;21.740;2024-01-30T05:39:09;20.02;;;11.27;;
84905;SDS011;75170;42.116;21.740;2024-01-30T05:41:36;18.17;;;9.80;;
84905;SDS011;75170;42.116;21.740;2024-01-30T05:44:02;18.25;;;9.18;;
84905;SDS011;75170;42.116;21.740;2024-01-30T05:46:28;15.75;;;7.90;;
84905;SDS011;75170;42.116;21.740;2024-01-30T05:48:54;17.20;;;8.95;;
84905;SDS011;75170;42.116;21.740;2024-01-30T05:51:20;18.75;;;8.75;;
84905;SDS011;75170;42.116;21.740;2024-01-30T05:53:47;18.73;;;9.60;;
84905;SDS011;75170;42.116;21.740;2024-01-30T05:56:13;16.20;;;9.25;;
84905;SDS011;75170;42.116;21.740;2024-01-30T05:58:40;16.35;;;7.93;;
84905;SDS011;75170;42.116;21.740;2024-01-30T06:01:08;16.33;;;7.97;;
84905;SDS011;75170;42.116;21.740;2024-01-30T06:03:34;14.45;;;7.85;;
84905;SDS011;75170;42.116;21.740;2024-01-30T06:06:00;14.73;;;8.68;;
84905;SDS011;75170;42.116;21.740;2024-01-30T06:08:27;20.83;;;9.98;;
84905;SDS011;75170;42.116;21.740;2024-01-30T06:10:53;20.05;;;9.20;;
84905;SDS011;75170;42.116;21.740;2024-01-30T06:13:19;20.90;;;9.38;;
84905;SDS011;75170;42.116;21.740;2024-01-30T06:15:45;22.65;;;10.98;;
84905;SDS011;75170;42.116;21.740;2024-01-30T06:18:11;25.23;;;10.95;;
84905;SDS011;75170;42.116;21.740;2024-01-30T06:20:38;34.00;;;16.17;;
84905;SDS011;75170;42.116;21.740;2024-01-30T06:23:04;24.45;;;12.95;;
84905;SDS011;75170;42.116;21.740;2024-01-30T06:25:30;22.45;;;11.10;;
84905;SDS011;75170;42.116;21.740;2024-01-30T06:27:56;21.70;;;10.43;;
84905;SDS011;75170;42.116;21.740;2024-01-30T06:30:22;19.70;;;10.27;;
84905;SDS011;75170;42.116;21.740;2024-01-30T06:32:51;22.08;;;10.57;;
84905;SDS011;75170;42.116;21.740;2024-01-30T06:35:17;23.50;;;10.95;;
84905;SDS011;75170;42.116;21.740;2024-01-30T06:37:43;23.95;;;10.77;;
84905;SDS011;75170;42.116;21.740;2024-01-30T06:40:10;27.63;;;13.65;;
84905;SDS011;75170;42.116;21.740;2024-01-30T06:42:36;22.95;;;11.52;;
84905;SDS011;75170;42.116;21.740;2024-01-30T06:45:02;27.80;;;12.65;;
84905;SDS011;75170;42.116;21.740;2024-01-30T06:47:29;22.95;;;10.82;;
84905;SDS011;75170;42.116;21.740;2024-01-30T06:49:56;25.15;;;11.48;;
84905;SDS011;75170;42.116;21.740;2024-01-30T06:52:22;27.20;;;12.63;;
84905;SDS011;75170;42.116;21.740;2024-01-30T06:54:48;24.63;;;13.43;;
84905;SDS011;75170;42.116;21.740;2024-01-30T06:57:14;26.50;;;15.00;;
84905;SDS011;75170;42.116;21.740;2024-01-30T06:59:40;25.40;;;12.02;;
84905;SDS011;75170;42.116;21.740;2024-01-30T07:02:08;26.45;;;13.68;;
84905;SDS011;75170;42.116;21.740;2024-01-30T07:04:35;27.80;;;13.43;;
84905;SDS011;75170;42.116;21.740;2024-01-30T07:07:02;21.52;;;12.98;;
84905;SDS011;75170;42.116;21.740;2024-01-30T07:09:30;17.48;;;8.90;;
84905;SDS011;75170;42.116;21.740;2024-01-30T07:11:56;16.08;;;9.50;;
84905;SDS011;75170;42.116;21.740;2024-01-30T07:14:23;15.00;;;8.65;;
84905;SDS011;75170;42.116;21.740;2024-01-30T07:16:49;17.48;;;9.20;;
84905;SDS011;75170;42.116;21.740;2024-01-30T07:19:16;14.80;;;7.55;;
84905;SDS011;75170;42.116;21.740;2024-01-30T07:21:42;13.95;;;7.72;;
84905;SDS011;75170;42.116;21.740;2024-01-30T07:24:09;10.25;;;5.82;;
84905;SDS011;75170;42.116;21.740;2024-01-30T07:26:35;9.63;;;4.85;;
84905;SDS011;75170;42.116;21.740;2024-01-30T07:29:01;16.20;;;8.02;;
84905;SDS011;75170;42.116;21.740;2024-01-30T07:31:27;11.52;;;5.50;;
84905;SDS011;75170;42.116;21.740;2024-01-30T07:33:53;10.13;;;5.65;;
84905;SDS011;75170;42.116;21.740;2024-01-30T07:36:19;11.20;;;6.28;;
84905;SDS011;75170;42.116;21.740;2024-01-30T07:38:45;12.55;;;6.00;;
84905;SDS011;75170;42.116;21.740;2024-01-30T07:41:12;10.45;;;5.07;;
84905;SDS011;75170;42.116;21.740;2024-01-30T07:43:38;9.00;;;4.57;;
84905;SDS011;75170;42.116;21.740;2024-01-30T07:46:04;8.88;;;5.05;;
84905;SDS011;75170;42.116;21.740;2024-01-30T07:48:32;9.60;;;4.88;;
84905;SDS011;75170;42.116;21.740;2024-01-30T07:50:59;6.65;;;3.65;;
84905;SDS011;75170;42.116;21.740;2024-01-30T07:53:25;6.28;;;4.35;;
84905;SDS011;75170;42.116;21.740;2024-01-30T07:55:51;9.20;;;5.18;;
84905;SDS011;75170;42.116;21.740;2024-01-30T07:58:18;11.23;;;5.35;;
84905;SDS011;75170;42.116;21.740;2024-01-30T08:00:44;7.78;;;4.68;;
84905;SDS011;75170;42.116;21.740;2024-01-30T08:03:10;9.70;;;6.07;;
84905;SDS011;75170;42.116;21.740;2024-01-30T08:05:36;16.17;;;8.70;;
84905;SDS011;75170;42.116;21.740;2024-01-30T08:08:04;9.13;;;6.20;;
84905;SDS011;75170;42.116;21.740;2024-01-30T08:10:30;15.55;;;7.65;;
84905;SDS011;75170;42.116;21.740;2024-01-30T08:12:56;12.00;;;7.15;;
84905;SDS011;75170;42.116;21.740;2024-01-30T08:15:22;12.07;;;6.38;;
84905;SDS011;75170;42.116;21.740;2024-01-30T08:17:48;10.15;;;6.43;;
84905;SDS011;75170;42.116;21.740;2024-01-30T08:20:14;12.75;;;6.45;;
84905;SDS011;75170;42.116;21.740;2024-01-30T08:22:41;10.68;;;6.18;;
84905;SDS011;75170;42.116;21.740;2024-01-30T08:25:08;11.43;;;5.88;;
84905;SDS011;75170;42.116;21.740;2024-01-30T08:27:35;28.92;;;11.45;;
84905;SDS011;75170;42.116;21.740;2024-01-30T08:32:29;7.03;;;3.80;;
84905;SDS011;75170;42.116;21.740;2024-01-30T08:34:55;8.52;;;4.72;;
84905;SDS011;75170;42.116;21.740;2024-01-30T08:37:21;8.57;;;4.72;;
84905;SDS011;75170;42.116;21.740;2024-01-30T08:39:47;10.13;;;5.35;;
84905;SDS011;75170;42.116;21.740;2024-01-30T08:42:13;8.45;;;5.10;;
84905;SDS011;75170;42.116;21.740;2024-01-30T08:44:39;10.13;;;4.95;;
84905;SDS011;75170;42.116;21.740;2024-01-30T08:47:05;9.10;;;4.90;;
84905;SDS011;75170;42.116;21.740;2024-01-30T08:49:31;6.65;;;3.95;;
84905;SDS011;75170;42.116;21.740;2024-01-30T08:51:57;8.13;;;4.65;;
84905;SDS011;75170;42.116;21.740;2024-01-30T08:54:24;7.32;;;4.63;;
84905;SDS011;75170;42.116;21.740;2024-01-30T08:56:50;9.00;;;4.97;;
84905;SDS011;75170;42.116;21.740;2024-01-30T08:59:18;7.30;;;3.53;;
84905;SDS011;75170;42.116;21.740;2024-01-30T09:01:44;7.43;;;4.22;;
84905;SDS011;75170;42.116;21.740;2024-01-30T09:04:12;5.65;;;3.42;;
84905;SDS011;75170;42.116;21.740;2024-01-30T09:06:39;6.45;;;3.50;;
84905;SDS011;75170;42.116;21.740;2024-01-30T09:09:05;8.05;;;4.07;;
84905;SDS011;75170;42.116;21.740;2024-01-30T09:11:31;6.43;;;3.25;;
84905;SDS011;75170;42.116;21.740;2024-01-30T09:13:57;6.40;;;3.42;;
84905;SDS011;75170;42.116;21.740;2024-01-30T09:16:23;5.85;;;3.80;;
84905;SDS011;75170;42.116;21.740;2024-01-30T09:18:49;5.40;;;3.42;;
84905;SDS011;75170;42.116;21.740;2024-01-30T09:21:15;7.00;;;4.15;;
84905;SDS011;75170;42.116;21.740;2024-01-30T09:23:41;9.10;;;4.10;;
84905;SDS011;75170;42.116;21.740;2024-01-30T09:26:07;6.15;;;3.55;;
84905;SDS011;75170;42.116;21.740;2024-01-30T09:28:34;7.13;;;3.42;;
84905;SDS011;75170;42.116;21.740;2024-01-30T09:31:00;8.00;;;3.83;;
84905;SDS011;75170;42.116;21.740;2024-01-30T09:33:27;5.38;;;3.25;;
84905;SDS011;75170;42.116;21.740;2024-01-30T09:35:53;5.18;;;3.13;;
84905;SDS011;75170;42.116;21.740;2024-01-30T09:38:20;8.57;;;3.88;;
84905;SDS011;75170;42.116;21.740;2024-01-30T09:40:48;7.85;;;4.03;;
84905;SDS011;75170;42.116;21.740;2024-01-30T09:43:18;10.18;;;5.97;;
84905;SDS011;75170;42.116;21.740;2024-01-30T09:45:46;8.38;;;5.07;;
84905;SDS011;75170;42.116;21.740;2024-01-30T09:48:12;7.68;;;4.47;;
84905;SDS011;75170;42.116;21.740;2024-01-30T09:50:39;9.65;;;5.30;;
84905;SDS011;75170;42.116;21.740;2024-01-30T09:53:08;11.60;;;7.35;;
84905;SDS011;75170;42.116;21.740;2024-01-30T09:55:36;10.48;;;6.28;;
84905;SDS011;75170;42.116;21.740;2024-01-30T09:58:02;7.72;;;4.72;;
84905;SDS011;75170;42.116;21.740;2024-01-30T10:00:28;8.35;;;4.53;;
84905;SDS011;75170;42.116;21.740;2024-01-30T10:02:56;5.22;;;3.58;;
84905;SDS011;75170;42.116;21.740;2024-01-30T10:05:28;6.30;;;3.72;;
84905;SDS011;75170;42.116;21.740;2024-01-30T10:08:00;6.80;;;3.85;;
84905;SDS011;75170;42.116;21.740;2024-01-30T10:10:27;6.65;;;4.22;;
84905;SDS011;75170;42.116;21.740;2024-01-30T10:12:54;7.10;;;4.20;;
84905;SDS011;75170;42.116;21.740;2024-01-30T10:15:22;7.68;;;5.50;;
84905;SDS011;75170;42.116;21.740;2024-01-30T10:17:49;6.95;;;4.10;;
84905;SDS011;75170;42.116;21.740;2024-01-30T10:20:15;8.70;;;5.03;;
84905;SDS011;75170;42.116;21.740;2024-01-30T10:22:42;7.03;;;4.03;;
84905;SDS011;75170;42.116;21.740;2024-01-30T10:25:09;7.25;;;4.53;;
84905;SDS011;75170;42.116;21.740;2024-01-30T10:27:36;9.27;;;4.53;;
84905;SDS011;75170;42.116;21.740;2024-01-30T10:30:02;8.65;;;4.80;;
84905;SDS011;75170;42.116;21.740;2024-01-30T10:32:29;14.20;;;7.22;;
84905;SDS011;75170;42.116;21.740;2024-01-30T10:34:55;8.13;;;4.70;;
84905;SDS011;75170;42.116;21.740;2024-01-30T10:37:21;9.85;;;4.65;;
84905;SDS011;75170;42.116;21.740;2024-01-30T10:39:50;10.35;;;5.53;;
84905;SDS011;75170;42.116;21.740;2024-01-30T10:42:20;11.13;;;5.50;;
84905;SDS011;75170;42.116;21.740;2024-01-30T10:47:32;10.98;;;5.82;;
84905;SDS011;75170;42.116;21.740;2024-01-30T10:49:59;9.52;;;5.35;;
84905;SDS011;75170;42.116;21.740;2024-01-30T10:52:26;8.38;;;4.20;;
84905;SDS011;75170;42.116;21.740;2024-01-30T10:54:54;6.90;;;3.78;;
84905;SDS011;75170;42.116;21.740;2024-01-30T10:57:22;9.73;;;5.03;;
84905;SDS011;75170;42.116;21.740;2024-01-30T10:59:49;8.25;;;4.78;;
84905;SDS011;75170;42.116;21.740;2024-01-30T11:02:15;7.63;;;4.35;;
84905;SDS011;75170;42.116;21.740;2024-01-30T11:04:41;6.72;;;4.22;;
84905;SDS011;75170;42.116;21.740;2024-01-30T11:07:17;11.52;;;6.07;;
84905;SDS011;75170;42.116;21.740;2024-01-30T11:09:53;9.65;;;4.57;;
84905;SDS011;75170;42.116;21.740;2024-01-30T11:12:22;5.75;;;3.88;;
84905;SDS011;75170;42.116;21.740;2024-01-30T11:14:50;6.78;;;4.18;;
84905;SDS011;75170;42.116;21.740;2024-01-30T11:17:16;13.80;;;7.22;;
84905;SDS011;75170;42.116;21.740;2024-01-30T11:19:42;10.93;;;5.68;;
84905;SDS011;75170;42.116;21.740;2024-01-30T11:22:08;8.48;;;5.25;;
84905;SDS011;75170;42.116;21.740;2024-01-30T11:24:41;6.60;;;4.32;;
84905;SDS011;75170;42.116;21.740;2024-01-30T11:27:10;6.20;;;3.80;;
84905;SDS011;75170;42.116;21.740;2024-01-30T11:29:36;7.80;;;4.40;;
84905;SDS011;75170;42.116;21.740;2024-01-30T11:32:02;8.20;;;4.22;;
84905;SDS011;75170;42.116;21.740;2024-01-30T11:34:28;7.60;;;4.32;;
84905;SDS011;75170;42.116;21.740;2024-01-30T11:36:58;15.57;;;7.35;;
84905;SDS011;75170;42.116;21.740;2024-01-30T11:39:25;6.57;;;3.75;;
84905;SDS011;75170;42.116;21.740;2024-01-30T11:41:51;8.27;;;3.95;;
84905;SDS011;75170;42.116;21.740;2024-01-30T11:44:27;7.55;;;3.97;;
84905;SDS011;75170;42.116;21.740;2024-01-30T11:46:53;6.88;;;4.40;;
84905;SDS011;75170;42.116;21.740;2024-01-30T11:49:20;7.13;;;4.20;;
84905;SDS011;75170;42.116;21.740;2024-01-30T11:51:47;7.53;;;4.30;;
84905;SDS011;75170;42.116;21.740;2024-01-30T11:54:14;8.43;;;4.05;;
84905;SDS011;75170;42.116;21.740;2024-01-30T11:56:41;6.80;;;3.60;;
84905;SDS011;75170;42.116;21.740;2024-01-30T11:59:08;7.03;;;3.67;;
84905;SDS011;75170;42.116;21.740;2024-01-30T12:01:34;9.80;;;5.40;;
84905;SDS011;75170;42.116;21.740;2024-01-30T12:04:00;12.52;;;5.97;;
84905;SDS011;75170;42.116;21.740;2024-01-30T12:06:27;13.10;;;5.88;;
84905;SDS011;75170;42.116;21.740;2024-01-30T12:09:00;9.85;;;5.85;;
84905;SDS011;75170;42.116;21.740;2024-01-30T12:11:28;6.45;;;4.30;;
84905;SDS011;75170;42.116;21.740;2024-01-30T12:13:57;11.35;;;5.80;;
84905;SDS011;75170;42.116;21.740;2024-01-30T12:16:24;6.43;;;3.30;;
84905;SDS011;75170;42.116;21.740;2024-01-30T12:18:58;6.75;;;4.18;;
84905;SDS011;75170;42.116;21.740;2024-01-30T12:21:25;6.65;;;3.28;;
84905;SDS011;75170;42.116;21.740;2024-01-30T12:23:51;6.90;;;3.70;;
84905;SDS011;75170;42.116;21.740;2024-01-30T12:26:17;7.88;;;4.40;;
84905;SDS011;75170;42.116;21.740;2024-01-30T12:28:49;7.25;;;4.05;;
84905;SDS011;75170;42.116;21.740;2024-01-30T12:31:16;6.07;;;3.70;;
84905;SDS011;75170;42.116;21.740;2024-01-30T12:33:42;9.95;;;4.40;;
84905;SDS011;75170;42.116;21.740;2024-01-30T12:36:08;6.95;;;3.47;;
84905;SDS011;75170;42.116;21.740;2024-01-30T12:38:34;6.13;;;3.33;;
84905;SDS011;75170;42.116;21.740;2024-01-30T12:41:00;8.18;;;4.35;;
84905;SDS011;75170;42.116;21.740;2024-01-30T12:43:26;6.28;;;3.63;;
84905;SDS011;75170;42.116;21.740;2024-01-30T12:45:53;7.15;;;4.22;;
84905;SDS011;75170;42.116;21.740;2024-01-30T12:48:19;8.55;;;4.25;;
84905;SDS011;75170;42.116;21.740;2024-01-30T12:50:45;9.32;;;5.25;;
84905;SDS011;75170;42.116;21.740;2024-01-30T12:53:11;11.68;;;7.13;;
84905;SDS011;75170;42.116;21.740;2024-01-30T12:55:38;6.10;;;4.13;;
84905;SDS011;75170;42.116;21.740;2024-01-30T12:58:04;6.47;;;4.38;;
84905;SDS011;75170;42.116;21.740;2024-01-30T13:00:30;8.57;;;4.53;;
84905;SDS011;75170;42.116;21.740;2024-01-30T13:02:57;9.02;;;4.55;;
84905;SDS011;75170;42.116;21.740;2024-01-30T13:05:23;8.65;;;5.38;;
84905;SDS011;75170;42.116;21.740;2024-01-30T13:07:49;8.35;;;4.57;;
84905;SDS011;75170;42.116;21.740;2024-01-30T13:10:15;7.85;;;5.10;;
84905;SDS011;75170;42.116;21.740;2024-01-30T13:12:41;9.95;;;5.43;;
84905;SDS011;75170;42.116;21.740;2024-01-30T13:15:07;7.25;;;4.57;;
84905;SDS011;75170;42.116;21.740;2024-01-30T13:17:33;11.57;;;4.97;;
84905;SDS011;75170;42.116;21.740;2024-01-30T13:20:01;12.88;;;5.75;;
84905;SDS011;75170;42.116;21.740;2024-01-30T13:24:55;8.65;;;4.57;;
84905;SDS011;75170;42.116;21.740;2024-01-30T13:27:21;10.63;;;5.20;;
84905;SDS011;75170;42.116;21.740;2024-01-30T13:29:48;10.65;;;5.78;;
84905;SDS011;75170;42.116;21.740;2024-01-30T13:32:14;7.90;;;5.00;;
84905;SDS011;75170;42.116;21.740;2024-01-30T13:34:40;9.13;;;4.80;;
84905;SDS011;75170;42.116;21.740;2024-01-30T13:37:06;13.23;;;5.53;;
84905;SDS011;75170;42.116;21.740;2024-01-30T13:39:32;8.13;;;4.80;;
84905;SDS011;75170;42.116;21.740;2024-01-30T13:41:59;9.38;;;4.95;;
84905;SDS011;75170;42.116;21.740;2024-01-30T13:44:25;6.78;;;4.05;;
84905;SDS011;75170;42.116;21.740;2024-01-30T13:46:51;8.85;;;6.13;;
84905;SDS011;75170;42.116;21.740;2024-01-30T13:49:17;9.55;;;5.43;;
84905;SDS011;75170;42.116;21.740;2024-01-30T13:51:43;10.88;;;5.32;;
84905;SDS011;75170;42.116;21.740;2024-01-30T13:54:09;10.15;;;5.38;;
84905;SDS011;75170;42.116;21.740;2024-01-30T13:56:35;8.45;;;5.25;;
84905;SDS011;75170;42.116;21.740;2024-01-30T13:59:01;9.20;;;4.75;;
84905;SDS011;75170;42.116;21.740;2024-01-30T14:01:30;16.55;;;7.97;;
84905;SDS011;75170;42.116;21.740;2024-01-30T14:03:56;21.00;;;10.27;;
84905;SDS011;75170;42.116;21.740;2024-01-30T14:06:22;20.98;;;10.35;;
84905;SDS011;75170;42.116;21.740;2024-01-30T14:08:49;30.88;;;13.75;;
84905;SDS011;75170;42.116;21.740;2024-01-30T14:11:15;99.32;;;41.70;;
84905;SDS011;75170;42.116;21.740;2024-01-30T14:13:44;39.55;;;18.13;;
84905;SDS011;75170;42.116;21.740;2024-01-30T14:16:10;30.60;;;13.90;;
84905;SDS011;75170;42.116;21.740;2024-01-30T14:18:36;10.50;;;5.50;;
84905;SDS011;75170;42.116;21.740;2024-01-30T14:21:02;16.67;;;9.43;;
84905;SDS011;75170;42.116;21.740;2024-01-30T14:23:28;15.15;;;8.73;;
84905;SDS011;75170;42.116;21.740;2024-01-30T14:25:54;11.98;;;6.70;;
84905;SDS011;75170;42.116;21.740;2024-01-30T14:28:20;10.15;;;6.18;;